sensor_id;sensor_type;location;lat;lon;timestamp;P1;durP1;ratioP1;P2;durP2;ratioP2
44126;SDS011;29786;50.798;7.302;2022-12-11T00:00:21;47.7;;;27.5;;
44126;SDS011;29786;50.798;7.302;2022-12-11T00:01:21;57.2;;;28.8;;
44126;SDS011;29786;50.798;7.302;2022-12-11T00:02:21;45.4;;;25.9;;
44126;SDS011;29786;50.798;7.302;2022-12-11T00:03:21;48.6;;;28.6;;
44126;SDS011;29786;50.798;7.302;2022-12-11T00:04:21;48.7;;;27.4;;
44126;SDS011;29786;50.798;7.302;2022-12-11T00:05:21;48.1;;;27.4;;
44126;SDS011;29786;50.798;7.302;2022-12-11T00:06:21;47.6;;;27.2;;
44126;SDS011;29786;50.798;7.302;2022-12-11T00:07:21;52.3;;;29.2;;
44126;SDS011;29786;50.798;7.302;2022-12-11T00:08:21;51;;;28.6;;
44126;SDS011;29786;50.798;7.302;2022-12-11T00:09:21;54.3;;;28.6;;
44126;SDS011;29786;50.798;7.302;2022-12-11T00:10:21;48.9;;;28.1;;
44126;SDS011;29786;50.798;7.302;2022-12-11T00:11:21;50.2;;;28.6;;
44126;SDS011;29786;50.798;7.302;2022-12-11T00:12:21;52.4;;;28.6;;
44126;SDS011;29786;50.798;7.302;2022-12-11T00:13:21;52.7;;;29.4;;
44126;SDS011;29786;50.798;7.302;2022-12-11T00:14:21;54.1;;;29.8;;
44126;SDS011;29786;50.798;7.302;2022-12-11T00:15:21;55.1;;;31.8;;
44126;SDS011;29786;50.798;7.302;2022-12-11T00:16:21;55.6;;;30.4;;
44126;SDS011;29786;50.798;7.302;2022-12-11T00:17:21;56.1;;;31;;
44126;SDS011;29786;50.798;7.302;2022-12-11T00:18:21;51.3;;;29;;
44126;SDS011;29786;50.798;7.302;2022-12-11T00:19:21;53.1;;;29.3;;
44126;SDS011;29786;50.798;7.302;2022-12-11T00:20:21;51.4;;;29.1;;
44126;SDS011;29786;50.798;7.302;2022-12-11T00:21:21;48.6;;;28;;
44126;SDS011;29786;50.798;7.302;2022-12-11T00:22:21;51.8;;;29;;
44126;SDS011;29786;50.798;7.302;2022-12-11T00:23:21;50.6;;;28;;
44126;SDS011;29786;50.798;7.302;2022-12-11T00:24:21;50.4;;;29.1;;
44126;SDS011;29786;50.798;7.302;2022-12-11T00:25:21;53.8;;;28.3;;
44126;SDS011;29786;50.798;7.302;2022-12-11T00:26:21;45.6;;;27;;
44126;SDS011;29786;50.798;7.302;2022-12-11T00:27:21;46.6;;;27;;
44126;SDS011;29786;50.798;7.302;2022-12-11T00:28:21;49.3;;;27.4;;
44126;SDS011;29786;50.798;7.302;2022-12-11T00:29:21;62.8;;;30.8;;
44126;SDS011;29786;50.798;7.302;2022-12-11T00:30:21;60.4;;;29.5;;
44126;SDS011;29786;50.798;7.302;2022-12-11T00:31:21;57.7;;;31;;
44126;SDS011;29786;50.798;7.302;2022-12-11T00:32:21;60.1;;;30.6;;
44126;SDS011;29786;50.798;7.302;2022-12-11T00:33:21;68.5;;;33.9;;
44126;SDS011;29786;50.798;7.302;2022-12-11T00:34:21;74.4;;;34.5;;
44126;SDS011;29786;50.798;7.302;2022-12-11T00:35:21;68.3;;;33.9;;
44126;SDS011;29786;50.798;7.302;2022-12-11T00:36:22;67.6;;;33.8;;
44126;SDS011;29786;50.798;7.302;2022-12-11T00:37:21;64.6;;;31.7;;
44126;SDS011;29786;50.798;7.302;2022-12-11T00:38:21;63.2;;;33.8;;
44126;SDS011;29786;50.798;7.302;2022-12-11T00:39:21;60.7;;;31.3;;
44126;SDS011;29786;50.798;7.302;2022-12-11T00:40:21;58.1;;;31.3;;
44126;SDS011;29786;50.798;7.302;2022-12-11T00:41:21;58.9;;;31.6;;
44126;SDS011;29786;50.798;7.302;2022-12-11T00:42:21;60.4;;;31.8;;
44126;SDS011;29786;50.798;7.302;2022-12-11T00:43:21;56.9;;;30.6;;
44126;SDS011;29786;50.798;7.302;2022-12-11T00:44:21;56.9;;;32.1;;
44126;SDS011;29786;50.798;7.302;2022-12-11T00:45:21;57;;;32.5;;
44126;SDS011;29786;50.798;7.302;2022-12-11T00:46:21;55.9;;;30.2;;
44126;SDS011;29786;50.798;7.302;2022-12-11T00:47:21;55.7;;;29.4;;
44126;SDS011;29786;50.798;7.302;2022-12-11T00:48:21;54.9;;;28.8;;
44126;SDS011;29786;50.798;7.302;2022-12-11T00:49:21;57.1;;;31.7;;
44126;SDS011;29786;50.798;7.302;2022-12-11T00:50:21;61.1;;;33.5;;
44126;SDS011;29786;50.798;7.302;2022-12-11T00:51:21;54.6;;;31.3;;
44126;SDS011;29786;50.798;7.302;2022-12-11T00:52:21;52.4;;;30.2;;
44126;SDS011;29786;50.798;7.302;2022-12-11T00:53:21;52.6;;;30.1;;
44126;SDS011;29786;50.798;7.302;2022-12-11T00:54:21;54.2;;;30;;
44126;SDS011;29786;50.798;7.302;2022-12-11T00:55:21;56.4;;;30.9;;
44126;SDS011;29786;50.798;7.302;2022-12-11T00:56:21;56.3;;;31.6;;
44126;SDS011;29786;50.798;7.302;2022-12-11T00:57:21;49.1;;;28.5;;
44126;SDS011;29786;50.798;7.302;2022-12-11T00:58:21;52.6;;;29.8;;
44126;SDS011;29786;50.798;7.302;2022-12-11T00:59:21;58.7;;;30.9;;
44126;SDS011;29786;50.798;7.302;2022-12-11T01:00:21;54.7;;;27.9;;
44126;SDS011;29786;50.798;7.302;2022-12-11T01:01:22;52.5;;;28.3;;
44126;SDS011;29786;50.798;7.302;2022-12-11T01:02:21;56.3;;;29.8;;
44126;SDS011;29786;50.798;7.302;2022-12-11T01:03:21;53.9;;;30.1;;
44126;SDS011;29786;50.798;7.302;2022-12-11T01:04:21;53.2;;;30.3;;
44126;SDS011;29786;50.798;7.302;2022-12-11T01:05:21;51.6;;;29.3;;
44126;SDS011;29786;50.798;7.302;2022-12-11T01:06:22;54.7;;;29.8;;
44126;SDS011;29786;50.798;7.302;2022-12-11T01:07:21;52.3;;;28.8;;
44126;SDS011;29786;50.798;7.302;2022-12-11T01:08:21;52.4;;;29.1;;
44126;SDS011;29786;50.798;7.302;2022-12-11T01:09:21;53.4;;;30;;
44126;SDS011;29786;50.798;7.302;2022-12-11T01:10:21;59;;;31.3;;
44126;SDS011;29786;50.798;7.302;2022-12-11T01:11:21;58.1;;;30.7;;
44126;SDS011;29786;50.798;7.302;2022-12-11T01:12:21;59.8;;;31.5;;
44126;SDS011;29786;50.798;7.302;2022-12-11T01:13:21;58.4;;;32.9;;
44126;SDS011;29786;50.798;7.302;2022-12-11T01:14:21;59.3;;;33.4;;
44126;SDS011;29786;50.798;7.302;2022-12-11T01:15:21;58.8;;;33.3;;
44126;SDS011;29786;50.798;7.302;2022-12-11T01:16:21;60.5;;;33.3;;
44126;SDS011;29786;50.798;7.302;2022-12-11T01:17:21;60.1;;;34.4;;
44126;SDS011;29786;50.798;7.302;2022-12-11T01:18:21;60.1;;;33.9;;
44126;SDS011;29786;50.798;7.302;2022-12-11T01:19:21;67.7;;;34;;
44126;SDS011;29786;50.798;7.302;2022-12-11T01:20:22;60.3;;;34.5;;
44126;SDS011;29786;50.798;7.302;2022-12-11T01:21:21;63.5;;;35.3;;
44126;SDS011;29786;50.798;7.302;2022-12-11T01:22:21;64.9;;;34.7;;
44126;SDS011;29786;50.798;7.302;2022-12-11T01:23:21;66.7;;;35.5;;
44126;SDS011;29786;50.798;7.302;2022-12-11T01:24:21;67.3;;;36.3;;
44126;SDS011;29786;50.798;7.302;2022-12-11T01:25:21;66.4;;;35.3;;
44126;SDS011;29786;50.798;7.302;2022-12-11T01:26:21;69.9;;;37.9;;
44126;SDS011;29786;50.798;7.302;2022-12-11T01:27:21;63.1;;;33.8;;
44126;SDS011;29786;50.798;7.302;2022-12-11T01:28:21;71.1;;;36.3;;
44126;SDS011;29786;50.798;7.302;2022-12-11T01:29:21;64.8;;;33.9;;
44126;SDS011;29786;50.798;7.302;2022-12-11T01:30:22;67.4;;;36;;
44126;SDS011;29786;50.798;7.302;2022-12-11T01:31:21;66.2;;;35.6;;
44126;SDS011;29786;50.798;7.302;2022-12-11T01:32:21;66.9;;;36.1;;
44126;SDS011;29786;50.798;7.302;2022-12-11T01:33:21;67.9;;;35.5;;
44126;SDS011;29786;50.798;7.302;2022-12-11T01:34:21;65.9;;;34.3;;
44126;SDS011;29786;50.798;7.302;2022-12-11T01:35:21;69.9;;;36.3;;
44126;SDS011;29786;50.798;7.302;2022-12-11T01:36:22;69;;;35.1;;
44126;SDS011;29786;50.798;7.302;2022-12-11T01:37:21;70.3;;;37.2;;
44126;SDS011;29786;50.798;7.302;2022-12-11T01:38:21;68.9;;;37.4;;
44126;SDS011;29786;50.798;7.302;2022-12-11T01:39:21;70.1;;;36.8;;
44126;SDS011;29786;50.798;7.302;2022-12-11T01:40:21;70.6;;;36.5;;
44126;SDS011;29786;50.798;7.302;2022-12-11T01:41:21;63.9;;;36.4;;
44126;SDS011;29786;50.798;7.302;2022-12-11T01:42:21;68.4;;;37;;
44126;SDS011;29786;50.798;7.302;2022-12-11T01:43:21;65.3;;;35.1;;
44126;SDS011;29786;50.798;7.302;2022-12-11T01:45:24;68.4;;;36.2;;
44126;SDS011;29786;50.798;7.302;2022-12-11T01:46:21;64.1;;;36;;
44126;SDS011;29786;50.798;7.302;2022-12-11T01:47:21;68.6;;;36.6;;
44126;SDS011;29786;50.798;7.302;2022-12-11T01:48:22;67.5;;;37;;
44126;SDS011;29786;50.798;7.302;2022-12-11T01:49:22;66.5;;;34.4;;
44126;SDS011;29786;50.798;7.302;2022-12-11T01:50:21;64.9;;;34.6;;
44126;SDS011;29786;50.798;7.302;2022-12-11T01:51:21;65.6;;;35.2;;
44126;SDS011;29786;50.798;7.302;2022-12-11T01:52:21;60.8;;;33;;
44126;SDS011;29786;50.798;7.302;2022-12-11T01:53:24;60.7;;;34.2;;
44126;SDS011;29786;50.798;7.302;2022-12-11T01:54:21;61.7;;;34.4;;
44126;SDS011;29786;50.798;7.302;2022-12-11T01:55:21;65.7;;;35.3;;
44126;SDS011;29786;50.798;7.302;2022-12-11T01:56:21;60.9;;;35.2;;
44126;SDS011;29786;50.798;7.302;2022-12-11T01:57:21;60.8;;;35.1;;
44126;SDS011;29786;50.798;7.302;2022-12-11T01:58:21;61;;;34.6;;
44126;SDS011;29786;50.798;7.302;2022-12-11T01:59:22;62;;;32.9;;
44126;SDS011;29786;50.798;7.302;2022-12-11T02:00:21;55.9;;;31.8;;
44126;SDS011;29786;50.798;7.302;2022-12-11T02:01:23;54.3;;;31.5;;
44126;SDS011;29786;50.798;7.302;2022-12-11T02:02:22;56.3;;;31;;
44126;SDS011;29786;50.798;7.302;2022-12-11T02:03:21;62.1;;;33.7;;
44126;SDS011;29786;50.798;7.302;2022-12-11T02:04:21;58.4;;;31.7;;
44126;SDS011;29786;50.798;7.302;2022-12-11T02:05:21;50.1;;;28.8;;
44126;SDS011;29786;50.798;7.302;2022-12-11T02:06:29;59;;;33.8;;
44126;SDS011;29786;50.798;7.302;2022-12-11T02:07:21;55.3;;;30.9;;
44126;SDS011;29786;50.798;7.302;2022-12-11T02:08:21;53.6;;;30.5;;
44126;SDS011;29786;50.798;7.302;2022-12-11T02:09:22;56.5;;;31.6;;
44126;SDS011;29786;50.798;7.302;2022-12-11T02:10:22;63.6;;;33.3;;
44126;SDS011;29786;50.798;7.302;2022-12-11T02:11:21;60.9;;;33.2;;
44126;SDS011;29786;50.798;7.302;2022-12-11T02:12:53;58.6;;;33;;
44126;SDS011;29786;50.798;7.302;2022-12-11T02:13:25;58.4;;;32.9;;
44126;SDS011;29786;50.798;7.302;2022-12-11T02:14:25;59.5;;;33.6;;
44126;SDS011;29786;50.798;7.302;2022-12-11T02:15:30;56.2;;;31.2;;
44126;SDS011;29786;50.798;7.302;2022-12-11T02:16:27;57.2;;;32.9;;
44126;SDS011;29786;50.798;7.302;2022-12-11T02:17:25;51.9;;;29.1;;
44126;SDS011;29786;50.798;7.302;2022-12-11T02:18:28;57.6;;;32.2;;
44126;SDS011;29786;50.798;7.302;2022-12-11T02:20:22;51.1;;;28.5;;
44126;SDS011;29786;50.798;7.302;2022-12-11T02:21:24;54.5;;;30.8;;
44126;SDS011;29786;50.798;7.302;2022-12-11T02:22:26;51.6;;;30.1;;
44126;SDS011;29786;50.798;7.302;2022-12-11T02:23:36;50.1;;;29.3;;
44126;SDS011;29786;50.798;7.302;2022-12-11T02:24:23;55.5;;;30;;
44126;SDS011;29786;50.798;7.302;2022-12-11T02:25:40;51.1;;;29.9;;
44126;SDS011;29786;50.798;7.302;2022-12-11T02:26:32;54.8;;;29.9;;
44126;SDS011;29786;50.798;7.302;2022-12-11T02:27:26;56.3;;;31.3;;
44126;SDS011;29786;50.798;7.302;2022-12-11T02:28:26;56.9;;;31;;
44126;SDS011;29786;50.798;7.302;2022-12-11T02:29:22;55.1;;;32.5;;
44126;SDS011;29786;50.798;7.302;2022-12-11T02:30:21;50.2;;;30.7;;
44126;SDS011;29786;50.798;7.302;2022-12-11T02:31:31;50.1;;;29.8;;
44126;SDS011;29786;50.798;7.302;2022-12-11T02:32:22;53.6;;;30.3;;
44126;SDS011;29786;50.798;7.302;2022-12-11T02:33:25;47.3;;;27.7;;
44126;SDS011;29786;50.798;7.302;2022-12-11T02:34:22;53.5;;;31.1;;
44126;SDS011;29786;50.798;7.302;2022-12-11T02:35:25;58.5;;;31.4;;
44126;SDS011;29786;50.798;7.302;2022-12-11T02:36:22;53.5;;;30.4;;
44126;SDS011;29786;50.798;7.302;2022-12-11T02:37:22;63.6;;;33;;
44126;SDS011;29786;50.798;7.302;2022-12-11T02:38:26;57.9;;;31.1;;
44126;SDS011;29786;50.798;7.302;2022-12-11T02:39:21;60.6;;;33.3;;
44126;SDS011;29786;50.798;7.302;2022-12-11T02:40:22;58.8;;;32.5;;
44126;SDS011;29786;50.798;7.302;2022-12-11T02:41:21;52.8;;;29.1;;
44126;SDS011;29786;50.798;7.302;2022-12-11T02:42:22;52.1;;;30.8;;
44126;SDS011;29786;50.798;7.302;2022-12-11T02:43:21;51.2;;;28.6;;
44126;SDS011;29786;50.798;7.302;2022-12-11T02:44:23;55.8;;;32.5;;
44126;SDS011;29786;50.798;7.302;2022-12-11T02:45:21;49.8;;;28.5;;
44126;SDS011;29786;50.798;7.302;2022-12-11T02:46:21;54.9;;;31.5;;
44126;SDS011;29786;50.798;7.302;2022-12-11T02:47:21;53.4;;;31;;
44126;SDS011;29786;50.798;7.302;2022-12-11T02:48:21;51.3;;;31;;
44126;SDS011;29786;50.798;7.302;2022-12-11T02:49:21;51.6;;;30.3;;
44126;SDS011;29786;50.798;7.302;2022-12-11T02:50:21;54.2;;;31.2;;
44126;SDS011;29786;50.798;7.302;2022-12-11T02:51:23;56.1;;;29.8;;
44126;SDS011;29786;50.798;7.302;2022-12-11T02:52:21;51.3;;;28.7;;
44126;SDS011;29786;50.798;7.302;2022-12-11T02:53:22;54.7;;;30.1;;
44126;SDS011;29786;50.798;7.302;2022-12-11T02:54:23;44.2;;;26.4;;
44126;SDS011;29786;50.798;7.302;2022-12-11T02:55:21;46.8;;;27.1;;
44126;SDS011;29786;50.798;7.302;2022-12-11T02:56:23;50.2;;;29.1;;
44126;SDS011;29786;50.798;7.302;2022-12-11T02:57:26;47.8;;;27.2;;
44126;SDS011;29786;50.798;7.302;2022-12-11T02:58:22;50.3;;;28.3;;
44126;SDS011;29786;50.798;7.302;2022-12-11T02:59:23;47.7;;;27.5;;
44126;SDS011;29786;50.798;7.302;2022-12-11T03:00:21;47.8;;;28.1;;
44126;SDS011;29786;50.798;7.302;2022-12-11T03:01:21;59.3;;;31;;
44126;SDS011;29786;50.798;7.302;2022-12-11T03:02:21;53.8;;;30.8;;
44126;SDS011;29786;50.798;7.302;2022-12-11T03:03:21;54.9;;;31.3;;
44126;SDS011;29786;50.798;7.302;2022-12-11T03:04:21;48.4;;;27.9;;
44126;SDS011;29786;50.798;7.302;2022-12-11T03:05:21;49.8;;;28.6;;
44126;SDS011;29786;50.798;7.302;2022-12-11T03:06:22;51.3;;;29.6;;
44126;SDS011;29786;50.798;7.302;2022-12-11T03:07:22;48.8;;;28.1;;
44126;SDS011;29786;50.798;7.302;2022-12-11T03:08:21;55.8;;;30.9;;
44126;SDS011;29786;50.798;7.302;2022-12-11T03:09:21;50;;;28.5;;
44126;SDS011;29786;50.798;7.302;2022-12-11T03:10:21;49.5;;;28.3;;
44126;SDS011;29786;50.798;7.302;2022-12-11T03:11:21;55.9;;;32.9;;
44126;SDS011;29786;50.798;7.302;2022-12-11T03:12:27;48.2;;;27.8;;
44126;SDS011;29786;50.798;7.302;2022-12-11T03:13:21;54.9;;;31.4;;
44126;SDS011;29786;50.798;7.302;2022-12-11T03:14:21;51;;;29.3;;
44126;SDS011;29786;50.798;7.302;2022-12-11T03:15:22;51.2;;;30.4;;
44126;SDS011;29786;50.798;7.302;2022-12-11T03:16:23;54.5;;;31.3;;
44126;SDS011;29786;50.798;7.302;2022-12-11T03:17:23;50.7;;;28.3;;
44126;SDS011;29786;50.798;7.302;2022-12-11T03:18:30;49;;;27.3;;
44126;SDS011;29786;50.798;7.302;2022-12-11T03:20:56;52.1;;;29.6;;
44126;SDS011;29786;50.798;7.302;2022-12-11T03:21:23;49.6;;;26.9;;
44126;SDS011;29786;50.798;7.302;2022-12-11T03:22:26;47.3;;;28;;
44126;SDS011;29786;50.798;7.302;2022-12-11T03:23:23;50.6;;;28.3;;
44126;SDS011;29786;50.798;7.302;2022-12-11T03:24:25;45.3;;;27;;
44126;SDS011;29786;50.798;7.302;2022-12-11T03:25:22;53.3;;;29.7;;
44126;SDS011;29786;50.798;7.302;2022-12-11T03:26:21;50.8;;;28.9;;
44126;SDS011;29786;50.798;7.302;2022-12-11T03:27:24;53.1;;;29.6;;
44126;SDS011;29786;50.798;7.302;2022-12-11T03:28:26;56.1;;;30.3;;
44126;SDS011;29786;50.798;7.302;2022-12-11T03:29:23;51.8;;;28.5;;
44126;SDS011;29786;50.798;7.302;2022-12-11T03:30:21;52.4;;;29.5;;
44126;SDS011;29786;50.798;7.302;2022-12-11T03:31:24;54;;;30.1;;
44126;SDS011;29786;50.798;7.302;2022-12-11T03:32:22;52.2;;;30.1;;
44126;SDS011;29786;50.798;7.302;2022-12-11T03:33:23;53.4;;;30.1;;
44126;SDS011;29786;50.798;7.302;2022-12-11T03:34:22;54.2;;;30.3;;
44126;SDS011;29786;50.798;7.302;2022-12-11T03:35:25;55.9;;;31.1;;
44126;SDS011;29786;50.798;7.302;2022-12-11T03:36:23;51.3;;;29.6;;
44126;SDS011;29786;50.798;7.302;2022-12-11T03:37:21;47.5;;;27.4;;
44126;SDS011;29786;50.798;7.302;2022-12-11T03:38:23;51.9;;;29.9;;
44126;SDS011;29786;50.798;7.302;2022-12-11T03:39:23;52;;;29.5;;
44126;SDS011;29786;50.798;7.302;2022-12-11T03:40:21;48.1;;;27.5;;
44126;SDS011;29786;50.798;7.302;2022-12-11T03:41:22;56.4;;;30.6;;
44126;SDS011;29786;50.798;7.302;2022-12-11T03:42:21;55.1;;;30.7;;
44126;SDS011;29786;50.798;7.302;2022-12-11T03:43:21;55.9;;;29.4;;
44126;SDS011;29786;50.798;7.302;2022-12-11T03:44:21;55;;;29.5;;
44126;SDS011;29786;50.798;7.302;2022-12-11T03:45:21;51.9;;;29.1;;
44126;SDS011;29786;50.798;7.302;2022-12-11T03:46:22;55.2;;;30;;
44126;SDS011;29786;50.798;7.302;2022-12-11T03:47:21;56.3;;;30.8;;
44126;SDS011;29786;50.798;7.302;2022-12-11T03:48:21;51.3;;;28.7;;
44126;SDS011;29786;50.798;7.302;2022-12-11T03:49:23;52.8;;;29.4;;
44126;SDS011;29786;50.798;7.302;2022-12-11T03:50:21;59.8;;;31.7;;
44126;SDS011;29786;50.798;7.302;2022-12-11T03:51:21;57.5;;;31.9;;
44126;SDS011;29786;50.798;7.302;2022-12-11T03:52:21;53.4;;;29.8;;
44126;SDS011;29786;50.798;7.302;2022-12-11T03:53:21;56;;;31.2;;
44126;SDS011;29786;50.798;7.302;2022-12-11T03:54:22;60.5;;;31.8;;
44126;SDS011;29786;50.798;7.302;2022-12-11T03:55:21;56.5;;;31.8;;
44126;SDS011;29786;50.798;7.302;2022-12-11T03:56:21;47.6;;;28.6;;
44126;SDS011;29786;50.798;7.302;2022-12-11T03:57:21;57;;;31.4;;
44126;SDS011;29786;50.798;7.302;2022-12-11T03:58:21;54.4;;;29.8;;
44126;SDS011;29786;50.798;7.302;2022-12-11T03:59:21;59;;;32.5;;
44126;SDS011;29786;50.798;7.302;2022-12-11T04:00:21;63.1;;;33.4;;
44126;SDS011;29786;50.798;7.302;2022-12-11T04:01:21;68.3;;;33.8;;
44126;SDS011;29786;50.798;7.302;2022-12-11T04:02:21;59.5;;;30.7;;
44126;SDS011;29786;50.798;7.302;2022-12-11T04:03:21;58.6;;;32.8;;
44126;SDS011;29786;50.798;7.302;2022-12-11T04:04:21;51;;;28.9;;
44126;SDS011;29786;50.798;7.302;2022-12-11T04:05:21;57.6;;;29.4;;
44126;SDS011;29786;50.798;7.302;2022-12-11T04:06:21;55.3;;;31.6;;
44126;SDS011;29786;50.798;7.302;2022-12-11T04:07:21;55.7;;;31.5;;
44126;SDS011;29786;50.798;7.302;2022-12-11T04:08:21;62.5;;;33.8;;
44126;SDS011;29786;50.798;7.302;2022-12-11T04:09:21;57.7;;;31.6;;
44126;SDS011;29786;50.798;7.302;2022-12-11T04:10:21;58.7;;;30.6;;
44126;SDS011;29786;50.798;7.302;2022-12-11T04:11:21;59.6;;;31.5;;
44126;SDS011;29786;50.798;7.302;2022-12-11T04:12:21;54;;;30.3;;
44126;SDS011;29786;50.798;7.302;2022-12-11T04:13:21;58;;;32.2;;
44126;SDS011;29786;50.798;7.302;2022-12-11T04:14:21;53.8;;;30.1;;
44126;SDS011;29786;50.798;7.302;2022-12-11T04:15:21;56.6;;;31.8;;
44126;SDS011;29786;50.798;7.302;2022-12-11T04:16:21;55.7;;;30.9;;
44126;SDS011;29786;50.798;7.302;2022-12-11T04:17:21;54.2;;;30.6;;
44126;SDS011;29786;50.798;7.302;2022-12-11T04:18:21;61.8;;;32.7;;
44126;SDS011;29786;50.798;7.302;2022-12-11T04:19:21;56.4;;;31.3;;
44126;SDS011;29786;50.798;7.302;2022-12-11T04:20:21;56.9;;;31.6;;
44126;SDS011;29786;50.798;7.302;2022-12-11T04:21:21;58.6;;;31.8;;
44126;SDS011;29786;50.798;7.302;2022-12-11T04:22:21;60.5;;;32.7;;
44126;SDS011;29786;50.798;7.302;2022-12-11T04:23:21;69.7;;;33.9;;
44126;SDS011;29786;50.798;7.302;2022-12-11T04:24:21;59.9;;;30.3;;
44126;SDS011;29786;50.798;7.302;2022-12-11T04:25:21;52.5;;;28.3;;
44126;SDS011;29786;50.798;7.302;2022-12-11T04:26:21;54.9;;;29.6;;
44126;SDS011;29786;50.798;7.302;2022-12-11T04:27:21;53.5;;;29.6;;
44126;SDS011;29786;50.798;7.302;2022-12-11T04:28:21;57.5;;;31.3;;
44126;SDS011;29786;50.798;7.302;2022-12-11T04:29:21;59.7;;;32.2;;
44126;SDS011;29786;50.798;7.302;2022-12-11T04:30:21;51.4;;;28.8;;
44126;SDS011;29786;50.798;7.302;2022-12-11T04:31:21;56.5;;;30.5;;
44126;SDS011;29786;50.798;7.302;2022-12-11T04:32:21;49.1;;;28.2;;
44126;SDS011;29786;50.798;7.302;2022-12-11T04:33:21;58.7;;;30.5;;
44126;SDS011;29786;50.798;7.302;2022-12-11T04:34:21;61.6;;;32.6;;
44126;SDS011;29786;50.798;7.302;2022-12-11T04:35:21;57.5;;;31.6;;
44126;SDS011;29786;50.798;7.302;2022-12-11T04:36:21;60.6;;;32.7;;
44126;SDS011;29786;50.798;7.302;2022-12-11T04:37:21;54.2;;;29;;
44126;SDS011;29786;50.798;7.302;2022-12-11T04:38:21;56.2;;;30;;
44126;SDS011;29786;50.798;7.302;2022-12-11T04:39:21;63.5;;;32.4;;
44126;SDS011;29786;50.798;7.302;2022-12-11T04:40:21;52.7;;;29.9;;
44126;SDS011;29786;50.798;7.302;2022-12-11T04:41:21;54.1;;;29.2;;
44126;SDS011;29786;50.798;7.302;2022-12-11T04:42:21;53.1;;;30.1;;
44126;SDS011;29786;50.798;7.302;2022-12-11T04:43:21;51.8;;;29.5;;
44126;SDS011;29786;50.798;7.302;2022-12-11T04:44:21;54.6;;;29.3;;
44126;SDS011;29786;50.798;7.302;2022-12-11T04:45:21;63.6;;;33.8;;
44126;SDS011;29786;50.798;7.302;2022-12-11T04:46:22;59.4;;;33;;
44126;SDS011;29786;50.798;7.302;2022-12-11T04:47:21;56.9;;;31.4;;
44126;SDS011;29786;50.798;7.302;2022-12-11T04:48:21;67.4;;;33.2;;
44126;SDS011;29786;50.798;7.302;2022-12-11T04:49:21;56.6;;;29.9;;
44126;SDS011;29786;50.798;7.302;2022-12-11T04:50:21;56.7;;;31.8;;
44126;SDS011;29786;50.798;7.302;2022-12-11T04:51:21;56.9;;;31.3;;
44126;SDS011;29786;50.798;7.302;2022-12-11T04:52:21;59;;;31.8;;
44126;SDS011;29786;50.798;7.302;2022-12-11T04:53:21;52.4;;;29.2;;
44126;SDS011;29786;50.798;7.302;2022-12-11T04:54:21;52.5;;;28.9;;
44126;SDS011;29786;50.798;7.302;2022-12-11T04:55:21;64;;;31.8;;
44126;SDS011;29786;50.798;7.302;2022-12-11T04:56:21;52.8;;;27.9;;
44126;SDS011;29786;50.798;7.302;2022-12-11T04:57:21;64.8;;;31.4;;
44126;SDS011;29786;50.798;7.302;2022-12-11T04:58:21;55.1;;;31.5;;
44126;SDS011;29786;50.798;7.302;2022-12-11T04:59:21;61.6;;;32.8;;
44126;SDS011;29786;50.798;7.302;2022-12-11T05:00:21;56.9;;;30.3;;
44126;SDS011;29786;50.798;7.302;2022-12-11T05:01:21;57.1;;;31.5;;
44126;SDS011;29786;50.798;7.302;2022-12-11T05:02:21;58.8;;;33;;
44126;SDS011;29786;50.798;7.302;2022-12-11T05:03:21;55.4;;;30.7;;
44126;SDS011;29786;50.798;7.302;2022-12-11T05:04:21;54.7;;;28.4;;
44126;SDS011;29786;50.798;7.302;2022-12-11T05:05:21;54.8;;;29.1;;
44126;SDS011;29786;50.798;7.302;2022-12-11T05:06:21;55.3;;;30.7;;
44126;SDS011;29786;50.798;7.302;2022-12-11T05:07:21;58.2;;;31.5;;
44126;SDS011;29786;50.798;7.302;2022-12-11T05:08:21;59;;;29.9;;
44126;SDS011;29786;50.798;7.302;2022-12-11T05:09:21;56.9;;;31.3;;
44126;SDS011;29786;50.798;7.302;2022-12-11T05:10:21;78.1;;;53.6;;
44126;SDS011;29786;50.798;7.302;2022-12-11T05:11:21;68.7;;;35.9;;
44126;SDS011;29786;50.798;7.302;2022-12-11T05:12:21;50.4;;;28;;
44126;SDS011;29786;50.798;7.302;2022-12-11T05:13:21;61.8;;;32.6;;
44126;SDS011;29786;50.798;7.302;2022-12-11T05:14:21;56.4;;;30.3;;
44126;SDS011;29786;50.798;7.302;2022-12-11T05:15:21;53.3;;;30.8;;
44126;SDS011;29786;50.798;7.302;2022-12-11T05:16:21;60.1;;;33.1;;
44126;SDS011;29786;50.798;7.302;2022-12-11T05:17:21;60.5;;;32.8;;
44126;SDS011;29786;50.798;7.302;2022-12-11T05:18:21;61.9;;;32.4;;
44126;SDS011;29786;50.798;7.302;2022-12-11T05:19:21;58.7;;;31.1;;
44126;SDS011;29786;50.798;7.302;2022-12-11T05:20:21;55.7;;;30;;
44126;SDS011;29786;50.798;7.302;2022-12-11T05:21:21;59.7;;;32.8;;
44126;SDS011;29786;50.798;7.302;2022-12-11T05:22:21;64.1;;;32.2;;
44126;SDS011;29786;50.798;7.302;2022-12-11T05:23:21;55.7;;;29.3;;
44126;SDS011;29786;50.798;7.302;2022-12-11T05:24:21;58.9;;;30.6;;
44126;SDS011;29786;50.798;7.302;2022-12-11T05:25:21;52.7;;;28.3;;
44126;SDS011;29786;50.798;7.302;2022-12-11T05:26:21;55.3;;;29.8;;
44126;SDS011;29786;50.798;7.302;2022-12-11T05:27:21;61.8;;;31.6;;
44126;SDS011;29786;50.798;7.302;2022-12-11T05:28:21;59.7;;;30.7;;
44126;SDS011;29786;50.798;7.302;2022-12-11T05:29:21;52.3;;;28.3;;
44126;SDS011;29786;50.798;7.302;2022-12-11T05:30:21;57.7;;;31.2;;
44126;SDS011;29786;50.798;7.302;2022-12-11T05:31:22;67.1;;;33.6;;
44126;SDS011;29786;50.798;7.302;2022-12-11T05:32:21;56.3;;;30.9;;
44126;SDS011;29786;50.798;7.302;2022-12-11T05:33:21;57.5;;;30.9;;
44126;SDS011;29786;50.798;7.302;2022-12-11T05:34:21;56.2;;;30.7;;
44126;SDS011;29786;50.798;7.302;2022-12-11T05:35:21;57.7;;;30.2;;
44126;SDS011;29786;50.798;7.302;2022-12-11T05:36:23;66.6;;;33.6;;
44126;SDS011;29786;50.798;7.302;2022-12-11T05:37:21;60.8;;;32;;
44126;SDS011;29786;50.798;7.302;2022-12-11T05:38:21;69.3;;;33.4;;
44126;SDS011;29786;50.798;7.302;2022-12-11T05:39:21;65.9;;;34.5;;
44126;SDS011;29786;50.798;7.302;2022-12-11T05:40:21;62.9;;;32;;
44126;SDS011;29786;50.798;7.302;2022-12-11T05:41:22;63.5;;;32.2;;
44126;SDS011;29786;50.798;7.302;2022-12-11T05:42:21;60.9;;;30.4;;
44126;SDS011;29786;50.798;7.302;2022-12-11T05:43:21;65.2;;;33.2;;
44126;SDS011;29786;50.798;7.302;2022-12-11T05:44:21;71.2;;;32.9;;
44126;SDS011;29786;50.798;7.302;2022-12-11T05:45:21;57.3;;;30;;
44126;SDS011;29786;50.798;7.302;2022-12-11T05:46:23;53.4;;;28.7;;
44126;SDS011;29786;50.798;7.302;2022-12-11T05:47:21;66.7;;;33.2;;
44126;SDS011;29786;50.798;7.302;2022-12-11T05:48:21;64;;;32;;
44126;SDS011;29786;50.798;7.302;2022-12-11T05:49:21;66;;;32.3;;
44126;SDS011;29786;50.798;7.302;2022-12-11T05:50:21;73.3;;;34.6;;
44126;SDS011;29786;50.798;7.302;2022-12-11T05:51:21;64.8;;;31.8;;
44126;SDS011;29786;50.798;7.302;2022-12-11T05:52:21;58.3;;;29.9;;
44126;SDS011;29786;50.798;7.302;2022-12-11T05:53:21;65.5;;;32.6;;
44126;SDS011;29786;50.798;7.302;2022-12-11T05:54:21;68.5;;;33.6;;
44126;SDS011;29786;50.798;7.302;2022-12-11T05:55:21;67.4;;;32.6;;
44126;SDS011;29786;50.798;7.302;2022-12-11T05:56:22;65.2;;;34.1;;
44126;SDS011;29786;50.798;7.302;2022-12-11T05:57:21;64.5;;;32.8;;
44126;SDS011;29786;50.798;7.302;2022-12-11T05:58:21;54.4;;;28.9;;
44126;SDS011;29786;50.798;7.302;2022-12-11T05:59:21;65.6;;;32.3;;
44126;SDS011;29786;50.798;7.302;2022-12-11T06:00:21;59.7;;;30.6;;
44126;SDS011;29786;50.798;7.302;2022-12-11T06:01:23;57;;;30;;
44126;SDS011;29786;50.798;7.302;2022-12-11T06:02:21;61.5;;;31.3;;
44126;SDS011;29786;50.798;7.302;2022-12-11T06:03:21;63.1;;;32.9;;
44126;SDS011;29786;50.798;7.302;2022-12-11T06:04:21;65.9;;;32.5;;
44126;SDS011;29786;50.798;7.302;2022-12-11T06:05:21;60.1;;;30.1;;
44126;SDS011;29786;50.798;7.302;2022-12-11T06:06:21;62.9;;;33.2;;